sensor_id;sensor_type;location;lat;lon;timestamp;temperature;humidity
74224;SHT31;62585;49.706;18.216;2023-05-02T00:00:35;13.68;63.86
74224;SHT31;62585;49.706;18.216;2023-05-02T00:03:13;13.83;61.54
74224;SHT31;62585;49.706;18.216;2023-05-02T00:05:39;14.01;61.20
74224;SHT31;62585;49.706;18.216;2023-05-02T00:08:05;13.99;62.18
74224;SHT31;62585;49.706;18.216;2023-05-02T00:10:32;13.98;61.84
74224;SHT31;62585;49.706;18.216;2023-05-02T00:12:57;13.78;65.38
74224;SHT31;62585;49.706;18.216;2023-05-02T00:15:23;13.33;68.28
74224;SHT31;62585;49.706;18.216;2023-05-02T00:17:49;12.97;69.82
74224;SHT31;62585;49.706;18.216;2023-05-02T00:20:14;12.83;67.67
74224;SHT31;62585;49.706;18.216;2023-05-02T00:22:40;13.02;66.45
74224;SHT31;62585;49.706;18.216;2023-05-02T00:25:06;12.96;69.96
74224;SHT31;62585;49.706;18.216;2023-05-02T00:27:32;12.61;70.19
74224;SHT31;62585;49.706;18.216;2023-05-02T00:29:59;12.76;68.35
74224;SHT31;62585;49.706;18.216;2023-05-02T00:32:25;12.78;68.74
74224;SHT31;62585;49.706;18.216;2023-05-02T00:34:52;12.73;68.26
74224;SHT31;62585;49.706;18.216;2023-05-02T00:37:17;12.68;67.15
74224;SHT31;62585;49.706;18.216;2023-05-02T00:39:43;12.89;65.23
74224;SHT31;62585;49.706;18.216;2023-05-02T00:42:09;13.17;63.96
74224;SHT31;62585;49.706;18.216;2023-05-02T00:44:35;13.26;64.54
74224;SHT31;62585;49.706;18.216;2023-05-02T00:47:01;13.30;64.15
74224;SHT31;62585;49.706;18.216;2023-05-02T00:49:27;13.50;62.03
74224;SHT31;62585;49.706;18.216;2023-05-02T00:51:53;13.62;61.67
74224;SHT31;62585;49.706;18.216;2023-05-02T00:54:20;13.69;61.72
74224;SHT31;62585;49.706;18.216;2023-05-02T00:56:45;13.71;61.41
74224;SHT31;62585;49.706;18.216;2023-05-02T00:59:12;13.71;61.79
74224;SHT31;62585;49.706;18.216;2023-05-02T01:13:03;13.83;59.44
74224;SHT31;62585;49.706;18.216;2023-05-02T01:15:34;13.87;59.60
74224;SHT31;62585;49.706;18.216;2023-05-02T01:18:01;13.99;59.36
74224;SHT31;62585;49.706;18.216;2023-05-02T01:20:29;14.06;58.23
74224;SHT31;62585;49.706;18.216;2023-05-02T01:23:02;14.20;57.67
74224;SHT31;62585;49.706;18.216;2023-05-02T01:25:52;14.16;57.56
74224;SHT31;62585;49.706;18.216;2023-05-02T01:31:07;14.33;56.60
74224;SHT31;62585;49.706;18.216;2023-05-02T01:33:34;14.50;54.77
74224;SHT31;62585;49.706;18.216;2023-05-02T01:36:01;14.72;52.92
74224;SHT31;62585;49.706;18.216;2023-05-02T01:38:28;14.78;53.09
74224;SHT31;62585;49.706;18.216;2023-05-02T01:40:55;14.89;52.73
74224;SHT31;62585;49.706;18.216;2023-05-02T01:43:29;14.33;57.68
74224;SHT31;62585;49.706;18.216;2023-05-02T01:45:57;13.62;62.33
74224;SHT31;62585;49.706;18.216;2023-05-02T01:48:26;13.26;66.11
74224;SHT31;62585;49.706;18.216;2023-05-02T01:50:54;13.04;66.85
74224;SHT31;62585;49.706;18.216;2023-05-02T01:53:20;12.96;66.90
74224;SHT31;62585;49.706;18.216;2023-05-02T01:55:48;12.95;67.13
74224;SHT31;62585;49.706;18.216;2023-05-02T01:58:14;12.97;65.26
74224;SHT31;62585;49.706;18.216;2023-05-02T02:00:41;13.09;65.55
74224;SHT31;62585;49.706;18.216;2023-05-02T02:03:09;13.20;63.59
74224;SHT31;62585;49.706;18.216;2023-05-02T02:05:36;13.36;60.76
74224;SHT31;62585;49.706;18.216;2023-05-02T02:08:04;13.48;59.62
74224;SHT31;62585;49.706;18.216;2023-05-02T02:13:17;13.86;58.26
74224;SHT31;62585;49.706;18.216;2023-05-02T02:15:46;13.74;60.58
74224;SHT31;62585;49.706;18.216;2023-05-02T02:18:20;13.23;67.72
74224;SHT31;62585;49.706;18.216;2023-05-02T02:20:47;13.13;66.83
74224;SHT31;62585;49.706;18.216;2023-05-02T02:23:15;12.93;67.40
74224;SHT31;62585;49.706;18.216;2023-05-02T02:25:43;12.95;67.26
74224;SHT31;62585;49.706;18.216;2023-05-02T02:28:09;12.89;66.23
74224;SHT31;62585;49.706;18.216;2023-05-02T02:30:35;12.99;64.51
74224;SHT31;62585;49.706;18.216;2023-05-02T02:33:01;13.21;62.51
74224;SHT31;62585;49.706;18.216;2023-05-02T02:35:32;13.28;61.81
74224;SHT31;62585;49.706;18.216;2023-05-02T02:41:23;12.99;67.53
74224;SHT31;62585;49.706;18.216;2023-05-02T02:52:20;12.55;69.66
74224;SHT31;62585;49.706;18.216;2023-05-02T02:54:59;12.63;69.33
74224;SHT31;62585;49.706;18.216;2023-05-02T02:57:26;12.65;69.18
74224;SHT31;62585;49.706;18.216;2023-05-02T03:00:01;12.73;69.15
74224;SHT31;62585;49.706;18.216;2023-05-02T03:02:31;12.72;69.34
74224;SHT31;62585;49.706;18.216;2023-05-02T03:04:57;12.63;70.41
74224;SHT31;62585;49.706;18.216;2023-05-02T03:07:26;12.65;70.18
74224;SHT31;62585;49.706;18.216;2023-05-02T03:09:52;12.63;69.73
74224;SHT31;62585;49.706;18.216;2023-05-02T03:12:18;12.59;70.46
74224;SHT31;62585;49.706;18.216;2023-05-02T03:14:43;12.53;70.02
74224;SHT31;62585;49.706;18.216;2023-05-02T03:17:09;12.59;70.24
74224;SHT31;62585;49.706;18.216;2023-05-02T03:19:35;12.49;70.90
74224;SHT31;62585;49.706;18.216;2023-05-02T03:22:02;12.52;70.70
74224;SHT31;62585;49.706;18.216;2023-05-02T03:24:28;12.51;70.32
74224;SHT31;62585;49.706;18.216;2023-05-02T03:26:57;12.34;70.65
74224;SHT31;62585;49.706;18.216;2023-05-02T03:29:26;12.35;70.35
74224;SHT31;62585;49.706;18.216;2023-05-02T03:31:53;12.40;69.76
74224;SHT31;62585;49.706;18.216;2023-05-02T03:34:18;12.45;69.02
74224;SHT31;62585;49.706;18.216;2023-05-02T03:36:46;12.31;68.40
74224;SHT31;62585;49.706;18.216;2023-05-02T03:39:12;12.40;68.71
74224;SHT31;62585;49.706;18.216;2023-05-02T03:41:38;12.42;69.64
74224;SHT31;62585;49.706;18.216;2023-05-02T03:44:03;12.49;68.53
74224;SHT31;62585;49.706;18.216;2023-05-02T03:46:29;12.52;68.50
74224;SHT31;62585;49.706;18.216;2023-05-02T03:48:58;12.51;69.34
74224;SHT31;62585;49.706;18.216;2023-05-02T03:51:24;12.51;69.06
74224;SHT31;62585;49.706;18.216;2023-05-02T03:53:49;12.49;69.06
74224;SHT31;62585;49.706;18.216;2023-05-02T03:56:18;12.41;68.91
74224;SHT31;62585;49.706;18.216;2023-05-02T03:58:44;12.45;69.00
74224;SHT31;62585;49.706;18.216;2023-05-02T04:01:15;12.52;68.48
74224;SHT31;62585;49.706;18.216;2023-05-02T04:03:41;12.53;67.19
74224;SHT31;62585;49.706;18.216;2023-05-02T04:06:07;12.55;66.18
74224;SHT31;62585;49.706;18.216;2023-05-02T04:08:33;12.68;67.22
74224;SHT31;62585;49.706;18.216;2023-05-02T04:10:59;12.65;68.24
74224;SHT31;62585;49.706;18.216;2023-05-02T04:13:24;12.52;68.55
74224;SHT31;62585;49.706;18.216;2023-05-02T04:15:50;12.56;69.41
74224;SHT31;62585;49.706;18.216;2023-05-02T04:18:16;12.48;69.67
74224;SHT31;62585;49.706;18.216;2023-05-02T04:20:42;12.53;69.55
74224;SHT31;62585;49.706;18.216;2023-05-02T04:23:09;12.51;70.75
74224;SHT31;62585;49.706;18.216;2023-05-02T04:25:34;12.51;69.97
74224;SHT31;62585;49.706;18.216;2023-05-02T04:28:00;12.42;68.90
74224;SHT31;62585;49.706;18.216;2023-05-02T04:30:26;12.42;69.45
74224;SHT31;62585;49.706;18.216;2023-05-02T04:32:52;12.51;68.67
74224;SHT31;62585;49.706;18.216;2023-05-02T04:35:18;12.46;68.31
74224;SHT31;62585;49.706;18.216;2023-05-02T04:37:43;12.55;66.64
74224;SHT31;62585;49.706;18.216;2023-05-02T04:40:09;12.63;67.15
74224;SHT31;62585;49.706;18.216;2023-05-02T04:42:35;12.73;66.61
74224;SHT31;62585;49.706;18.216;2023-05-02T04:45:01;12.78;67.07
74224;SHT31;62585;49.706;18.216;2023-05-02T04:47:27;12.86;68.65
74224;SHT31;62585;49.706;18.216;2023-05-02T04:49:53;12.83;68.28
74224;SHT31;62585;49.706;18.216;2023-05-02T04:52:18;12.93;68.43
74224;SHT31;62585;49.706;18.216;2023-05-02T04:54:44;12.93;68.82
74224;SHT31;62585;49.706;18.216;2023-05-02T04:57:10;13.00;68.75
74224;SHT31;62585;49.706;18.216;2023-05-02T04:59:36;13.06;69.14
74224;SHT31;62585;49.706;18.216;2023-05-02T05:02:02;13.16;67.94
74224;SHT31;62585;49.706;18.216;2023-05-02T05:04:29;13.23;68.50
74224;SHT31;62585;49.706;18.216;2023-05-02T05:06:54;13.24;68.28
74224;SHT31;62585;49.706;18.216;2023-05-02T05:09:21;13.23;67.82
74224;SHT31;62585;49.706;18.216;2023-05-02T05:11:46;13.31;69.20
74224;SHT31;62585;49.706;18.216;2023-05-02T05:14:12;13.43;63.93
74224;SHT31;62585;49.706;18.216;2023-05-02T05:16:38;13.51;62.48
74224;SHT31;62585;49.706;18.216;2023-05-02T05:19:04;13.53;61.73
74224;SHT31;62585;49.706;18.216;2023-05-02T05:21:29;13.57;61.78
74224;SHT31;62585;49.706;18.216;2023-05-02T05:23:56;13.65;61.05
74224;SHT31;62585;49.706;18.216;2023-05-02T05:26:21;13.74;60.84
74224;SHT31;62585;49.706;18.216;2023-05-02T05:28:48;13.86;60.88
74224;SHT31;62585;49.706;18.216;2023-05-02T05:31:14;13.95;61.74
74224;SHT31;62585;49.706;18.216;2023-05-02T05:33:42;13.87;60.59
74224;SHT31;62585;49.706;18.216;2023-05-02T05:36:12;13.93;61.24
74224;SHT31;62585;49.706;18.216;2023-05-02T05:38:42;14.09;61.65
74224;SHT31;62585;49.706;18.216;2023-05-02T05:41:07;14.08;61.09
74224;SHT31;62585;49.706;18.216;2023-05-02T05:43:34;14.14;62.21
74224;SHT31;62585;49.706;18.216;2023-05-02T05:45:59;14.22;62.55
74224;SHT31;62585;49.706;18.216;2023-05-02T05:48:26;14.24;65.79
74224;SHT31;62585;49.706;18.216;2023-05-02T05:50:51;14.43;66.12
74224;SHT31;62585;49.706;18.216;2023-05-02T05:53:18;14.50;65.76
74224;SHT31;62585;49.706;18.216;2023-05-02T05:55:44;14.56;63.05
74224;SHT31;62585;49.706;18.216;2023-05-02T05:58:10;14.41;62.14
74224;SHT31;62585;49.706;18.216;2023-05-02T06:00:37;14.30;60.28
74224;SHT31;62585;49.706;18.216;2023-05-02T06:03:03;14.34;60.36
74224;SHT31;62585;49.706;18.216;2023-05-02T06:05:29;14.45;60.33
74224;SHT31;62585;49.706;18.216;2023-05-02T06:07:56;14.75;60.64
74224;SHT31;62585;49.706;18.216;2023-05-02T06:10:22;14.98;60.33
74224;SHT31;62585;49.706;18.216;2023-05-02T06:12:48;15.18;59.10
74224;SHT31;62585;49.706;18.216;2023-05-02T06:15:14;15.33;60.66
74224;SHT31;62585;49.706;18.216;2023-05-02T06:17:40;15.39;58.95
74224;SHT31;62585;49.706;18.216;2023-05-02T06:20:06;15.49;59.56
74224;SHT31;62585;49.706;18.216;2023-05-02T06:22:32;15.70;55.47
74224;SHT31;62585;49.706;18.216;2023-05-02T06:24:58;15.87;57.90
74224;SHT31;62585;49.706;18.216;2023-05-02T06:27:25;16.01;54.13
74224;SHT31;62585;49.706;18.216;2023-05-02T06:29:51;16.22;53.20
74224;SHT31;62585;49.706;18.216;2023-05-02T06:32:17;16.21;53.12
74224;SHT31;62585;49.706;18.216;2023-05-02T06:34:43;16.28;54.06
74224;SHT31;62585;49.706;18.216;2023-05-02T06:37:09;16.30;51.23
74224;SHT31;62585;49.706;18.216;2023-05-02T06:39:36;16.28;52.19
74224;SHT31;62585;49.706;18.216;2023-05-02T06:42:02;16.49;51.40
74224;SHT31;62585;49.706;18.216;2023-05-02T06:44:27;16.57;50.45
74224;SHT31;62585;49.706;18.216;2023-05-02T06:46:53;16.56;50.65
74224;SHT31;62585;49.706;18.216;2023-05-02T06:49:22;16.67;50.48
74224;SHT31;62585;49.706;18.216;2023-05-02T06:51:48;16.76;50.72
74224;SHT31;62585;49.706;18.216;2023-05-02T06:54:14;16.91;51.40
74224;SHT31;62585;49.706;18.216;2023-05-02T06:56:41;16.92;50.88
74224;SHT31;62585;49.706;18.216;2023-05-02T06:59:06;17.07;48.97
74224;SHT31;62585;49.706;18.216;2023-05-02T07:01:32;17.07;49.51
74224;SHT31;62585;49.706;18.216;2023-05-02T07:03:59;16.97;47.88
74224;SHT31;62585;49.706;18.216;2023-05-02T07:06:25;16.90;49.12
74224;SHT31;62585;49.706;18.216;2023-05-02T07:08:52;17.03;47.34
74224;SHT31;62585;49.706;18.216;2023-05-02T07:11:18;17.06;52.60
74224;SHT31;62585;49.706;18.216;2023-05-02T07:13:43;16.95;54.60
74224;SHT31;62585;49.706;18.216;2023-05-02T07:16:10;17.22;54.20
74224;SHT31;62585;49.706;18.216;2023-05-02T07:18:36;17.10;52.63
74224;SHT31;62585;49.706;18.216;2023-05-02T07:21:02;17.27;53.76
74224;SHT31;62585;49.706;18.216;2023-05-02T07:23:28;17.27;51.50
74224;SHT31;62585;49.706;18.216;2023-05-02T07:25:54;17.40;51.14
74224;SHT31;62585;49.706;18.216;2023-05-02T07:28:19;17.29;49.82
74224;SHT31;62585;49.706;18.216;2023-05-02T07:30:45;17.62;50.32
74224;SHT31;62585;49.706;18.216;2023-05-02T07:33:11;17.73;51.03
74224;SHT31;62585;49.706;18.216;2023-05-02T07:35:37;17.77;51.53
74224;SHT31;62585;49.706;18.216;2023-05-02T07:38:02;17.61;50.63
74224;SHT31;62585;49.706;18.216;2023-05-02T07:40:28;17.57;51.18
74224;SHT31;62585;49.706;18.216;2023-05-02T07:42:54;17.48;49.94
74224;SHT31;62585;49.706;18.216;2023-05-02T07:45:20;17.46;50.89
74224;SHT31;62585;49.706;18.216;2023-05-02T07:47:45;17.46;51.66
74224;SHT31;62585;49.706;18.216;2023-05-02T07:50:11;17.55;52.12
74224;SHT31;62585;49.706;18.216;2023-05-02T07:52:37;17.45;52.89
74224;SHT31;62585;49.706;18.216;2023-05-02T07:55:03;17.66;53.32
74224;SHT31;62585;49.706;18.216;2023-05-02T07:57:29;17.61;52.68
74224;SHT31;62585;49.706;18.216;2023-05-02T07:59:55;17.90;52.50
74224;SHT31;62585;49.706;18.216;2023-05-02T08:02:24;17.76;51.81
74224;SHT31;62585;49.706;18.216;2023-05-02T08:04:50;17.15;53.24
74224;SHT31;62585;49.706;18.216;2023-05-02T08:07:16;17.14;53.14
74224;SHT31;62585;49.706;18.216;2023-05-02T08:09:42;17.19;55.09
74224;SHT31;62585;49.706;18.216;2023-05-02T08:12:08;17.50;55.31
74224;SHT31;62585;49.706;18.216;2023-05-02T08:14:33;17.52;53.40
74224;SHT31;62585;49.706;18.216;2023-05-02T08:16:59;17.39;54.88
74224;SHT31;62585;49.706;18.216;2023-05-02T08:19:26;17.48;54.64
74224;SHT31;62585;49.706;18.216;2023-05-02T08:21:54;17.49;54.08
74224;SHT31;62585;49.706;18.216;2023-05-02T08:24:20;17.62;54.17
74224;SHT31;62585;49.706;18.216;2023-05-02T08:26:46;17.67;54.66
74224;SHT31;62585;49.706;18.216;2023-05-02T08:29:12;17.70;54.18
74224;SHT31;62585;49.706;18.216;2023-05-02T08:31:39;17.73;55.12
74224;SHT31;62585;49.706;18.216;2023-05-02T08:34:05;17.70;57.20
74224;SHT31;62585;49.706;18.216;2023-05-02T08:36:31;17.87;56.43
74224;SHT31;62585;49.706;18.216;2023-05-02T08:38:57;17.83;55.68
74224;SHT31;62585;49.706;18.216;2023-05-02T08:41:23;18.14;55.12
74224;SHT31;62585;49.706;18.216;2023-05-02T08:43:49;18.28;54.37
74224;SHT31;62585;49.706;18.216;2023-05-02T08:46:16;17.98;54.60
74224;SHT31;62585;49.706;18.216;2023-05-02T08:48:43;18.01;55.20
74224;SHT31;62585;49.706;18.216;2023-05-02T08:51:13;18.21;55.40
74224;SHT31;62585;49.706;18.216;2023-05-02T08:53:40;18.61;53.40
74224;SHT31;62585;49.706;18.216;2023-05-02T08:56:07;18.76;53.34
74224;SHT31;62585;49.706;18.216;2023-05-02T08:58:38;18.59;54.51
74224;SHT31;62585;49.706;18.216;2023-05-02T09:01:12;18.61;55.13
74224;SHT31;62585;49.706;18.216;2023-05-02T09:03:39;18.53;53.56
74224;SHT31;62585;49.706;18.216;2023-05-02T09:06:15;18.59;53.38
74224;SHT31;62585;49.706;18.216;2023-05-02T09:08:42;18.55;53.59
74224;SHT31;62585;49.706;18.216;2023-05-02T09:11:09;18.83;54.08
74224;SHT31;62585;49.706;18.216;2023-05-02T09:13:46;19.24;54.18
74224;SHT31;62585;49.706;18.216;2023-05-02T09:16:23;19.07;54.04
74224;SHT31;62585;49.706;18.216;2023-05-02T09:18:57;18.90;51.95
74224;SHT31;62585;49.706;18.216;2023-05-02T09:21:25;19.30;53.77
74224;SHT31;62585;49.706;18.216;2023-05-02T09:23:56;19.17;51.61
74224;SHT31;62585;49.706;18.216;2023-05-02T09:26:24;19.10;51.91
74224;SHT31;62585;49.706;18.216;2023-05-02T09:28:57;19.28;51.77
74224;SHT31;62585;49.706;18.216;2023-05-02T09:31:23;19.27;52.66
74224;SHT31;62585;49.706;18.216;2023-05-02T09:33:54;19.66;52.30
74224;SHT31;62585;49.706;18.216;2023-05-02T09:36:20;19.39;51.43
74224;SHT31;62585;49.706;18.216;2023-05-02T09:38:48;19.47;52.34
74224;SHT31;62585;49.706;18.216;2023-05-02T09:41:14;19.82;52.26
74224;SHT31;62585;49.706;18.216;2023-05-02T09:43:40;19.96;52.49
74224;SHT31;62585;49.706;18.216;2023-05-02T09:46:08;19.87;51.08
74224;SHT31;62585;49.706;18.216;2023-05-02T09:48:54;19.87;51.06
74224;SHT31;62585;49.706;18.216;2023-05-02T09:51:23;19.99;49.54
74224;SHT31;62585;49.706;18.216;2023-05-02T09:53:50;20.10;51.11
74224;SHT31;62585;49.706;18.216;2023-05-02T09:56:17;20.00;50.97
74224;SHT31;62585;49.706;18.216;2023-05-02T09:58:43;20.19;50.95
74224;SHT31;62585;49.706;18.216;2023-05-02T10:01:16;19.79;50.21
74224;SHT31;62585;49.706;18.216;2023-05-02T10:03:46;19.55;50.90
74224;SHT31;62585;49.706;18.216;2023-05-02T10:06:12;19.45;52.90
74224;SHT31;62585;49.706;18.216;2023-05-02T10:08:40;19.57;53.65
74224;SHT31;62585;49.706;18.216;2023-05-02T10:11:07;19.65;55.23
74224;SHT31;62585;49.706;18.216;2023-05-02T10:13:36;19.66;53.34
74224;SHT31;62585;49.706;18.216;2023-05-02T10:16:05;19.38;55.27
74224;SHT31;62585;49.706;18.216;2023-05-02T10:18:47;19.85;55.75
74224;SHT31;62585;49.706;18.216;2023-05-02T10:21:24;19.87;54.73
74224;SHT31;62585;49.706;18.216;2023-05-02T10:23:50;19.82;53.59
74224;SHT31;62585;49.706;18.216;2023-05-02T10:26:17;20.08;53.82
74224;SHT31;62585;49.706;18.216;2023-05-02T10:28:46;20.03;53.23
74224;SHT31;62585;49.706;18.216;2023-05-02T10:31:13;19.97;53.95
74224;SHT31;62585;49.706;18.216;2023-05-02T10:33:39;19.99;52.74
74224;SHT31;62585;49.706;18.216;2023-05-02T10:36:09;20.09;53.12
74224;SHT31;62585;49.706;18.216;2023-05-02T10:38:38;20.09;53.48
74224;SHT31;62585;49.706;18.216;2023-05-02T10:41:08;19.58;50.84
74224;SHT31;62585;49.706;18.216;2023-05-02T10:43:35;19.51;52.18
74224;SHT31;62585;49.706;18.216;2023-05-02T10:46:02;19.75;52.02
74224;SHT31;62585;49.706;18.216;2023-05-02T10:49:04;20.09;53.93
74224;SHT31;62585;49.706;18.216;2023-05-02T10:51:31;20.00;51.46
74224;SHT31;62585;49.706;18.216;2023-05-02T10:57:01;19.83;52.10
74224;SHT31;62585;49.706;18.216;2023-05-02T10:59:35;19.68;51.81
74224;SHT31;62585;49.706;18.216;2023-05-02T11:02:02;19.90;53.58
74224;SHT31;62585;49.706;18.216;2023-05-02T11:05:07;20.02;51.82
74224;SHT31;62585;49.706;18.216;2023-05-02T11:07:34;19.97;52.19
74224;SHT31;62585;49.706;18.216;2023-05-02T11:10:26;19.93;51.52
74224;SHT31;62585;49.706;18.216;2023-05-02T11:12:55;20.00;53.12
74224;SHT31;62585;49.706;18.216;2023-05-02T11:18:07;20.12;49.26
74224;SHT31;62585;49.706;18.216;2023-05-02T11:20:34;19.81;50.38
74224;SHT31;62585;49.706;18.216;2023-05-02T11:25:48;20.37;53.02
74224;SHT31;62585;49.706;18.216;2023-05-02T11:30:59;19.97;51.36
74224;SHT31;62585;49.706;18.216;2023-05-02T11:33:27;19.86;50.00
74224;SHT31;62585;49.706;18.216;2023-05-02T11:35:53;19.95;51.27
74224;SHT31;62585;49.706;18.216;2023-05-02T11:38:21;19.83;51.74
74224;SHT31;62585;49.706;18.216;2023-05-02T11:40:57;19.83;52.48
74224;SHT31;62585;49.706;18.216;2023-05-02T11:43:24;20.09;51.42
74224;SHT31;62585;49.706;18.216;2023-05-02T11:45:52;19.99;50.39
74224;SHT31;62585;49.706;18.216;2023-05-02T11:48:20;19.90;52.15
74224;SHT31;62585;49.706;18.216;2023-05-02T11:53:20;20.19;51.43
74224;SHT31;62585;49.706;18.216;2023-05-02T11:56:02;20.03;51.50
74224;SHT31;62585;49.706;18.216;2023-05-02T11:58:30;19.83;51.11
74224;SHT31;62585;49.706;18.216;2023-05-02T12:01:15;20.17;54.25
74224;SHT31;62585;49.706;18.216;2023-05-02T12:03:41;20.19;50.27
74224;SHT31;62585;49.706;18.216;2023-05-02T12:06:12;20.12;51.89
74224;SHT31;62585;49.706;18.216;2023-05-02T12:08:39;19.89;50.45
74224;SHT31;62585;49.706;18.216;2023-05-02T12:11:06;19.83;50.86
74224;SHT31;62585;49.706;18.216;2023-05-02T12:13:32;19.95;51.89
74224;SHT31;62585;49.706;18.216;2023-05-02T12:15:58;20.19;53.12
74224;SHT31;62585;49.706;18.216;2023-05-02T12:18:25;20.24;52.17
74224;SHT31;62585;49.706;18.216;2023-05-02T12:20:52;20.16;53.29
74224;SHT31;62585;49.706;18.216;2023-05-02T12:23:20;20.12;54.88
74224;SHT31;62585;49.706;18.216;2023-05-02T12:25:46;20.20;52.08
74224;SHT31;62585;49.706;18.216;2023-05-02T12:28:13;20.02;55.89
74224;SHT31;62585;49.706;18.216;2023-05-02T12:30:39;19.85;59.38
74224;SHT31;62585;49.706;18.216;2023-05-02T12:33:06;19.65;60.56
74224;SHT31;62585;49.706;18.216;2023-05-02T12:35:33;19.53;62.47
74224;SHT31;62585;49.706;18.216;2023-05-02T12:38:18;19.43;62.93
74224;SHT31;62585;49.706;18.216;2023-05-02T12:40:54;19.44;63.57
74224;SHT31;62585;49.706;18.216;2023-05-02T12:43:22;19.43;63.05
74224;SHT31;62585;49.706;18.216;2023-05-02T12:45:49;19.45;63.88
74224;SHT31;62585;49.706;18.216;2023-05-02T12:48:26;19.18;62.39
74224;SHT31;62585;49.706;18.216;2023-05-02T12:50:53;19.04;62.78
74224;SHT31;62585;49.706;18.216;2023-05-02T12:53:42;18.90;64.74
74224;SHT31;62585;49.706;18.216;2023-05-02T12:56:09;18.82;65.32
74224;SHT31;62585;49.706;18.216;2023-05-02T12:58:45;18.83;65.27
74224;SHT31;62585;49.706;18.216;2023-05-02T13:01:13;18.72;64.63
74224;SHT31;62585;49.706;18.216;2023-05-02T13:03:40;18.55;66.41
74224;SHT31;62585;49.706;18.216;2023-05-02T13:06:06;18.66;65.34
74224;SHT31;62585;49.706;18.216;2023-05-02T13:08:33;18.47;64.77
74224;SHT31;62585;49.706;18.216;2023-05-02T13:11:00;18.40;65.83
74224;SHT31;62585;49.706;18.216;2023-05-02T13:13:26;18.32;65.15
74224;SHT31;62585;49.706;18.216;2023-05-02T13:15:51;18.23;66.29
74224;SHT31;62585;49.706;18.216;2023-05-02T13:18:17;18.05;68.29
74224;SHT31;62585;49.706;18.216;2023-05-02T13:20:43;17.97;68.51
74224;SHT31;62585;49.706;18.216;2023-05-02T13:23:09;17.72;68.46
74224;SHT31;62585;49.706;18.216;2023-05-02T13:25:34;17.53;69.39
74224;SHT31;62585;49.706;18.216;2023-05-02T13:28:00;17.29;71.39
74224;SHT31;62585;49.706;18.216;2023-05-02T13:30:26;16.95;75.39
74224;SHT31;62585;49.706;18.216;2023-05-02T13:32:52;16.56;79.33
74224;SHT31;62585;49.706;18.216;2023-05-02T13:35:17;16.32;81.39
74224;SHT31;62585;49.706;18.216;2023-05-02T13:37:43;16.06;84.73
74224;SHT31;62585;49.706;18.216;2023-05-02T13:40:09;15.74;85.54
74224;SHT31;62585;49.706;18.216;2023-05-02T13:42:36;15.50;84.36
74224;SHT31;62585;49.706;18.216;2023-05-02T13:45:02;15.61;83.83
74224;SHT31;62585;49.706;18.216;2023-05-02T13:47:29;15.47;86.07
74224;SHT31;62585;49.706;18.216;2023-05-02T13:49:55;15.39;85.49
74224;SHT31;62585;49.706;18.216;2023-05-02T13:52:21;15.33;86.01
74224;SHT31;62585;49.706;18.216;2023-05-02T13:54:47;15.20;84.38
74224;SHT31;62585;49.706;18.216;2023-05-02T13:57:13;15.09;85.50
74224;SHT31;62585;49.706;18.216;2023-05-02T13:59:39;14.98;85.65
74224;SHT31;62585;49.706;18.216;2023-05-02T14:02:04;14.78;86.27
74224;SHT31;62585;49.706;18.216;2023-05-02T14:04:30;14.54;86.61
74224;SHT31;62585;49.706;18.216;2023-05-02T14:06:56;14.60;89.75
74224;SHT31;62585;49.706;18.216;2023-05-02T14:09:22;14.63;87.80
74224;SHT31;62585;49.706;18.216;2023-05-02T14:11:48;14.61;88.70
74224;SHT31;62585;49.706;18.216;2023-05-02T14:14:14;14.65;88.85
74224;SHT31;62585;49.706;18.216;2023-05-02T14:16:39;14.64;89.48
74224;SHT31;62585;49.706;18.216;2023-05-02T14:19:05;14.68;88.84
74224;SHT31;62585;49.706;18.216;2023-05-02T14:21:31;14.60;87.64
74224;SHT31;62585;49.706;18.216;2023-05-02T14:23:57;14.60;89.53
74224;SHT31;62585;49.706;18.216;2023-05-02T14:26:23;14.52;90.03
74224;SHT31;62585;49.706;18.216;2023-05-02T14:28:48;14.61;86.50
74224;SHT31;62585;49.706;18.216;2023-05-02T14:31:14;14.61;87.12
74224;SHT31;62585;49.706;18.216;2023-05-02T14:33:40;14.65;88.54
74224;SHT31;62585;49.706;18.216;2023-05-02T14:36:06;14.87;87.99
74224;SHT31;62585;49.706;18.216;2023-05-02T14:38:32;14.79;85.49
74224;SHT31;62585;49.706;18.216;2023-05-02T14:40:57;14.79;86.96
74224;SHT31;62585;49.706;18.216;2023-05-02T14:43:23;14.65;86.47
74224;SHT31;62585;49.706;18.216;2023-05-02T14:45:49;14.63;85.41
74224;SHT31;62585;49.706;18.216;2023-05-02T14:48:15;14.68;85.39
74224;SHT31;62585;49.706;18.216;2023-05-02T14:50:42;14.65;85.61
74224;SHT31;62585;49.706;18.216;2023-05-02T14:53:08;14.48;86.65
74224;SHT31;62585;49.706;18.216;2023-05-02T14:55:40;14.52;86.32
74224;SHT31;62585;49.706;18.216;2023-05-02T14:58:06;14.65;85.89
74224;SHT31;62585;49.706;18.216;2023-05-02T15:00:33;14.64;86.46
74224;SHT31;62585;49.706;18.216;2023-05-02T15:03:05;14.56;85.98
74224;SHT31;62585;49.706;18.216;2023-05-02T15:05:31;14.40;84.29
74224;SHT31;62585;49.706;18.216;2023-05-02T15:07:57;14.34;85.99
74224;SHT31;62585;49.706;18.216;2023-05-02T15:10:23;14.32;87.67
74224;SHT31;62585;49.706;18.216;2023-05-02T15:12:49;14.45;86.97
74224;SHT31;62585;49.706;18.216;2023-05-02T15:15:16;14.52;85.84
74224;SHT31;62585;49.706;18.216;2023-05-02T15:17:42;14.37;85.73
74224;SHT31;62585;49.706;18.216;2023-05-02T15:20:09;14.38;84.28
74224;SHT31;62585;49.706;18.216;2023-05-02T15:22:35;14.33;84.10
74224;SHT31;62585;49.706;18.216;2023-05-02T15:25:01;14.38;85.35
74224;SHT31;62585;49.706;18.216;2023-05-02T15:27:26;14.37;84.18
74224;SHT31;62585;49.706;18.216;2023-05-02T15:29:52;14.36;85.00
74224;SHT31;62585;49.706;18.216;2023-05-02T15:32:18;14.38;84.91
74224;SHT31;62585;49.706;18.216;2023-05-02T15:34:43;14.37;80.24
74224;SHT31;62585;49.706;18.216;2023-05-02T15:37:10;14.22;82.24
74224;SHT31;62585;49.706;18.216;2023-05-02T15:39:35;14.01;81.32
74224;SHT31;62585;49.706;18.216;2023-05-02T15:42:02;14.01;81.53
74224;SHT31;62585;49.706;18.216;2023-05-02T15:44:35;13.96;80.30
74224;SHT31;62585;49.706;18.216;2023-05-02T15:47:02;13.95;79.14
74224;SHT31;62585;49.706;18.216;2023-05-02T15:49:28;13.89;80.46
74224;SHT31;62585;49.706;18.216;2023-05-02T15:51:58;13.81;80.05
74224;SHT31;62585;49.706;18.216;2023-05-02T15:54:24;13.74;81.32
74224;SHT31;62585;49.706;18.216;2023-05-02T15:56:50;13.78;82.97
74224;SHT31;62585;49.706;18.216;2023-05-02T15:59:16;13.74;84.57